Terminal Aerodrome Forecast
Issued by NWS Lake Charles, LA

Current Version | Previous Version | Text Only | Print | Product List | Glossary On
Versions: 1 2 3 4 5 6 7 8 9 10 11 12 13 14 15 16 17 18 19
000
FTUS44 KLCH 020500
TAFLCH
TAF
KLCH 020520Z 0206/0306 16005KT P6SM VCSH SCT015
      TEMPO 0209/0213 4SM BR BKN015
     FM021400 17006KT P6SM VCSH BKN025
     FM021700 19010G18KT P6SM VCTS SCT035CB BKN050
     FM030100 17006KT P6SM VCSH BKN015=

USA.gov is the U.S. government's official web portal to all federal, state and local government web resources and services.